sensor_id;sensor_type;location;lat;lon;timestamp;temperature;humidity
11140;DHT22;5624;49.388;11.350;2023-07-08T00:00:24;17.80;44.20
11140;DHT22;5624;49.388;11.350;2023-07-08T00:02:50;17.80;44.40
11140;DHT22;5624;49.388;11.350;2023-07-08T00:05:21;17.80;44.60
11140;DHT22;5624;49.388;11.350;2023-07-08T00:07:47;17.80;44.40
11140;DHT22;5624;49.388;11.350;2023-07-08T00:10:16;17.90;44.50
11140;DHT22;5624;49.388;11.350;2023-07-08T00:12:43;17.80;44.70
11140;DHT22;5624;49.388;11.350;2023-07-08T00:15:09;17.60;45.20
11140;DHT22;5624;49.388;11.350;2023-07-08T00:17:35;17.60;45.30
11140;DHT22;5624;49.388;11.350;2023-07-08T00:20:04;17.60;45.60
11140;DHT22;5624;49.388;11.350;2023-07-08T00:22:33;17.60;45.60
11140;DHT22;5624;49.388;11.350;2023-07-08T00:25:01;17.60;46.00
11140;DHT22;5624;49.388;11.350;2023-07-08T00:27:27;17.50;46.00
11140;DHT22;5624;49.388;11.350;2023-07-08T00:29:52;17.50;45.90
11140;DHT22;5624;49.388;11.350;2023-07-08T00:32:18;17.50;45.60
11140;DHT22;5624;49.388;11.350;2023-07-08T00:34:43;17.60;45.10
11140;DHT22;5624;49.388;11.350;2023-07-08T00:37:12;17.50;45.80
11140;DHT22;5624;49.388;11.350;2023-07-08T00:39:39;17.60;45.30
11140;DHT22;5624;49.388;11.350;2023-07-08T00:42:17;17.60;45.20
11140;DHT22;5624;49.388;11.350;2023-07-08T00:44:43;17.60;45.10
11140;DHT22;5624;49.388;11.350;2023-07-08T00:47:11;17.50;45.80
11140;DHT22;5624;49.388;11.350;2023-07-08T00:49:52;17.50;46.20
11140;DHT22;5624;49.388;11.350;2023-07-08T00:52:26;17.40;46.30
11140;DHT22;5624;49.388;11.350;2023-07-08T00:54:54;17.30;46.80
11140;DHT22;5624;49.388;11.350;2023-07-08T00:57:21;17.10;46.80
11140;DHT22;5624;49.388;11.350;2023-07-08T00:59:57;17.20;46.30
11140;DHT22;5624;49.388;11.350;2023-07-08T01:02:25;17.20;46.80
11140;DHT22;5624;49.388;11.350;2023-07-08T01:07:33;17.30;46.00
11140;DHT22;5624;49.388;11.350;2023-07-08T01:10:03;17.30;46.00
11140;DHT22;5624;49.388;11.350;2023-07-08T01:12:34;17.40;45.90
11140;DHT22;5624;49.388;11.350;2023-07-08T01:15:02;17.40;45.90
11140;DHT22;5624;49.388;11.350;2023-07-08T01:17:29;17.40;46.10
11140;DHT22;5624;49.388;11.350;2023-07-08T01:19:59;17.40;46.30
11140;DHT22;5624;49.388;11.350;2023-07-08T01:22:24;17.30;46.50
11140;DHT22;5624;49.388;11.350;2023-07-08T01:24:50;17.40;46.20
11140;DHT22;5624;49.388;11.350;2023-07-08T01:27:18;17.30;46.80
11140;DHT22;5624;49.388;11.350;2023-07-08T01:29:45;17.30;47.00
11140;DHT22;5624;49.388;11.350;2023-07-08T01:32:13;17.30;47.00
11140;DHT22;5624;49.388;11.350;2023-07-08T01:34:44;17.20;47.40
11140;DHT22;5624;49.388;11.350;2023-07-08T01:39:57;17.30;47.40
11140;DHT22;5624;49.388;11.350;2023-07-08T01:42:23;17.40;47.30
11140;DHT22;5624;49.388;11.350;2023-07-08T01:44:49;17.40;47.30
11140;DHT22;5624;49.388;11.350;2023-07-08T01:47:17;17.40;47.80
11140;DHT22;5624;49.388;11.350;2023-07-08T01:49:45;17.40;47.90
11140;DHT22;5624;49.388;11.350;2023-07-08T01:52:12;17.40;48.00
11140;DHT22;5624;49.388;11.350;2023-07-08T01:54:38;17.40;48.40
11140;DHT22;5624;49.388;11.350;2023-07-08T01:57:04;17.40;48.30
11140;DHT22;5624;49.388;11.350;2023-07-08T01:59:29;17.50;48.40
11140;DHT22;5624;49.388;11.350;2023-07-08T02:01:55;17.50;48.50
11140;DHT22;5624;49.388;11.350;2023-07-08T02:04:22;17.50;48.60
11140;DHT22;5624;49.388;11.350;2023-07-08T02:06:57;17.60;48.50
11140;DHT22;5624;49.388;11.350;2023-07-08T02:09:24;17.50;48.90
11140;DHT22;5624;49.388;11.350;2023-07-08T02:11:53;17.50;49.10
11140;DHT22;5624;49.388;11.350;2023-07-08T02:14:19;17.60;49.50
11140;DHT22;5624;49.388;11.350;2023-07-08T02:16:44;17.70;49.20
11140;DHT22;5624;49.388;11.350;2023-07-08T02:19:10;17.70;49.10
11140;DHT22;5624;49.388;11.350;2023-07-08T02:21:36;17.70;49.60
11140;DHT22;5624;49.388;11.350;2023-07-08T02:24:03;17.60;50.00
11140;DHT22;5624;49.388;11.350;2023-07-08T02:26:28;17.50;50.30
11140;DHT22;5624;49.388;11.350;2023-07-08T02:28:57;17.60;50.10
11140;DHT22;5624;49.388;11.350;2023-07-08T02:31:23;17.70;50.00
11140;DHT22;5624;49.388;11.350;2023-07-08T02:33:53;17.70;49.80
11140;DHT22;5624;49.388;11.350;2023-07-08T02:36:19;17.70;50.20
11140;DHT22;5624;49.388;11.350;2023-07-08T02:38:45;17.70;50.20
11140;DHT22;5624;49.388;11.350;2023-07-08T02:41:10;17.60;50.30
11140;DHT22;5624;49.388;11.350;2023-07-08T02:43:37;17.60;50.50
11140;DHT22;5624;49.388;11.350;2023-07-08T02:46:03;17.60;50.50
11140;DHT22;5624;49.388;11.350;2023-07-08T02:48:28;17.60;50.60
11140;DHT22;5624;49.388;11.350;2023-07-08T02:51:04;17.60;50.80
11140;DHT22;5624;49.388;11.350;2023-07-08T02:53:30;17.60;50.90
11140;DHT22;5624;49.388;11.350;2023-07-08T02:55:56;17.50;51.10
11140;DHT22;5624;49.388;11.350;2023-07-08T02:58:23;17.50;51.30
11140;DHT22;5624;49.388;11.350;2023-07-08T03:00:56;17.40;51.70
11140;DHT22;5624;49.388;11.350;2023-07-08T03:03:24;17.30;52.10
11140;DHT22;5624;49.388;11.350;2023-07-08T03:05:59;17.30;52.50
11140;DHT22;5624;49.388;11.350;2023-07-08T03:08:26;17.10;52.90
11140;DHT22;5624;49.388;11.350;2023-07-08T03:11:03;17.00;53.40
11140;DHT22;5624;49.388;11.350;2023-07-08T03:13:30;16.90;53.90
11140;DHT22;5624;49.388;11.350;2023-07-08T03:15:58;16.90;54.10
11140;DHT22;5624;49.388;11.350;2023-07-08T03:18:28;16.90;54.00
11140;DHT22;5624;49.388;11.350;2023-07-08T03:20:57;16.90;54.10
11140;DHT22;5624;49.388;11.350;2023-07-08T03:23:23;16.90;54.20
11140;DHT22;5624;49.388;11.350;2023-07-08T03:25:49;16.80;54.40
11140;DHT22;5624;49.388;11.350;2023-07-08T03:28:15;16.70;55.00
11140;DHT22;5624;49.388;11.350;2023-07-08T03:30:41;16.60;55.20
11140;DHT22;5624;49.388;11.350;2023-07-08T03:33:08;16.60;55.40
11140;DHT22;5624;49.388;11.350;2023-07-08T03:35:34;16.50;55.90
11140;DHT22;5624;49.388;11.350;2023-07-08T03:37:59;16.40;56.50
11140;DHT22;5624;49.388;11.350;2023-07-08T03:40:25;16.40;56.70
11140;DHT22;5624;49.388;11.350;2023-07-08T03:42:50;16.40;56.60
11140;DHT22;5624;49.388;11.350;2023-07-08T03:45:16;16.40;57.00
11140;DHT22;5624;49.388;11.350;2023-07-08T03:47:42;16.50;56.50
11140;DHT22;5624;49.388;11.350;2023-07-08T03:50:19;16.70;56.00
11140;DHT22;5624;49.388;11.350;2023-07-08T03:52:46;16.70;56.10
11140;DHT22;5624;49.388;11.350;2023-07-08T03:55:12;16.60;56.30
11140;DHT22;5624;49.388;11.350;2023-07-08T03:57:38;16.60;56.40
11140;DHT22;5624;49.388;11.350;2023-07-08T04:00:05;16.60;56.70
11140;DHT22;5624;49.388;11.350;2023-07-08T04:02:35;16.60;56.60
11140;DHT22;5624;49.388;11.350;2023-07-08T04:05:01;16.70;56.50
11140;DHT22;5624;49.388;11.350;2023-07-08T04:07:26;16.80;56.40
11140;DHT22;5624;49.388;11.350;2023-07-08T04:09:52;16.80;56.50
11140;DHT22;5624;49.388;11.350;2023-07-08T04:12:18;16.90;56.30
11140;DHT22;5624;49.388;11.350;2023-07-08T04:14:43;17.00;56.00
11140;DHT22;5624;49.388;11.350;2023-07-08T04:17:09;17.10;55.50
11140;DHT22;5624;49.388;11.350;2023-07-08T04:19:35;17.20;55.60
11140;DHT22;5624;49.388;11.350;2023-07-08T04:22:02;17.20;55.60
11140;DHT22;5624;49.388;11.350;2023-07-08T04:24:27;17.30;55.80
11140;DHT22;5624;49.388;11.350;2023-07-08T04:26:53;17.30;55.60
11140;DHT22;5624;49.388;11.350;2023-07-08T04:29:21;17.40;55.60
11140;DHT22;5624;49.388;11.350;2023-07-08T04:31:47;17.50;55.10
11140;DHT22;5624;49.388;11.350;2023-07-08T04:34:14;17.70;54.80
11140;DHT22;5624;49.388;11.350;2023-07-08T04:36:40;17.80;54.50
11140;DHT22;5624;49.388;11.350;2023-07-08T04:39:07;18.00;54.20
11140;DHT22;5624;49.388;11.350;2023-07-08T04:41:34;18.20;53.20
11140;DHT22;5624;49.388;11.350;2023-07-08T04:43:59;18.60;52.40
11140;DHT22;5624;49.388;11.350;2023-07-08T04:46:43;19.30;50.30
11140;DHT22;5624;49.388;11.350;2023-07-08T04:49:10;20.40;47.90
11140;DHT22;5624;49.388;11.350;2023-07-08T04:51:37;20.70;47.10
11140;DHT22;5624;49.388;11.350;2023-07-08T04:54:03;20.70;46.90
11140;DHT22;5624;49.388;11.350;2023-07-08T04:56:46;20.80;47.00
11140;DHT22;5624;49.388;11.350;2023-07-08T04:59:17;21.00;46.90
11140;DHT22;5624;49.388;11.350;2023-07-08T05:01:43;21.10;46.00
11140;DHT22;5624;49.388;11.350;2023-07-08T05:04:12;21.20;45.70
11140;DHT22;5624;49.388;11.350;2023-07-08T05:06:37;21.10;46.10
11140;DHT22;5624;49.388;11.350;2023-07-08T05:09:04;21.20;45.30
11140;DHT22;5624;49.388;11.350;2023-07-08T05:11:30;21.50;45.20
11140;DHT22;5624;49.388;11.350;2023-07-08T05:13:56;21.90;45.00
11140;DHT22;5624;49.388;11.350;2023-07-08T05:16:22;22.10;44.00
11140;DHT22;5624;49.388;11.350;2023-07-08T05:18:47;22.40;43.30
11140;DHT22;5624;49.388;11.350;2023-07-08T05:21:14;22.90;43.00
11140;DHT22;5624;49.388;11.350;2023-07-08T05:23:40;23.10;43.30
11140;DHT22;5624;49.388;11.350;2023-07-08T05:26:06;23.10;41.40
11140;DHT22;5624;49.388;11.350;2023-07-08T05:28:33;23.10;41.90
11140;DHT22;5624;49.388;11.350;2023-07-08T05:30:59;22.80;42.30
11140;DHT22;5624;49.388;11.350;2023-07-08T05:33:27;22.80;42.30
11140;DHT22;5624;49.388;11.350;2023-07-08T05:35:53;22.70;43.30
11140;DHT22;5624;49.388;11.350;2023-07-08T05:38:19;22.80;43.00
11140;DHT22;5624;49.388;11.350;2023-07-08T05:40:55;22.80;42.80
11140;DHT22;5624;49.388;11.350;2023-07-08T05:43:21;22.90;42.10
11140;DHT22;5624;49.388;11.350;2023-07-08T05:45:47;23.10;42.00
11140;DHT22;5624;49.388;11.350;2023-07-08T05:48:13;23.00;42.60
11140;DHT22;5624;49.388;11.350;2023-07-08T05:50:39;23.00;43.20
11140;DHT22;5624;49.388;11.350;2023-07-08T05:53:08;23.10;42.30
11140;DHT22;5624;49.388;11.350;2023-07-08T05:55:35;23.30;42.10
11140;DHT22;5624;49.388;11.350;2023-07-08T05:58:00;23.50;41.20
11140;DHT22;5624;49.388;11.350;2023-07-08T06:00:26;23.40;41.50
11140;DHT22;5624;49.388;11.350;2023-07-08T06:02:52;23.20;41.50
11140;DHT22;5624;49.388;11.350;2023-07-08T06:05:17;23.40;41.50
11140;DHT22;5624;49.388;11.350;2023-07-08T06:07:43;23.80;40.70
11140;DHT22;5624;49.388;11.350;2023-07-08T06:10:09;24.00;40.30
11140;DHT22;5624;49.388;11.350;2023-07-08T06:12:34;24.70;38.60
11140;DHT22;5624;49.388;11.350;2023-07-08T06:15:00;24.50;39.00
11140;DHT22;5624;49.388;11.350;2023-07-08T06:17:26;25.00;38.40
11140;DHT22;5624;49.388;11.350;2023-07-08T06:19:52;25.50;37.40
11140;DHT22;5624;49.388;11.350;2023-07-08T06:22:17;26.00;36.50
11140;DHT22;5624;49.388;11.350;2023-07-08T06:24:43;26.40;36.60
11140;DHT22;5624;49.388;11.350;2023-07-08T06:27:09;27.30;36.30
11140;DHT22;5624;49.388;11.350;2023-07-08T06:29:34;28.50;33.90
11140;DHT22;5624;49.388;11.350;2023-07-08T06:32:01;29.60;32.20
11140;DHT22;5624;49.388;11.350;2023-07-08T06:34:28;30.50;30.70
11140;DHT22;5624;49.388;11.350;2023-07-08T06:36:54;31.40;28.40
11140;DHT22;5624;49.388;11.350;2023-07-08T06:39:20;32.20;29.00
11140;DHT22;5624;49.388;11.350;2023-07-08T06:41:46;32.50;27.50
11140;DHT22;5624;49.388;11.350;2023-07-08T06:44:12;33.00;28.70
11140;DHT22;5624;49.388;11.350;2023-07-08T06:46:37;33.50;26.70
11140;DHT22;5624;49.388;11.350;2023-07-08T06:49:03;34.00;24.70
11140;DHT22;5624;49.388;11.350;2023-07-08T06:51:29;33.10;25.80
11140;DHT22;5624;49.388;11.350;2023-07-08T06:53:55;32.30;27.40
11140;DHT22;5624;49.388;11.350;2023-07-08T06:56:21;31.50;26.90
11140;DHT22;5624;49.388;11.350;2023-07-08T06:58:46;31.20;28.00
11140;DHT22;5624;49.388;11.350;2023-07-08T07:01:12;31.30;29.10
11140;DHT22;5624;49.388;11.350;2023-07-08T07:03:38;31.20;27.80
11140;DHT22;5624;49.388;11.350;2023-07-08T07:06:03;31.80;27.20
11140;DHT22;5624;49.388;11.350;2023-07-08T07:08:29;32.30;26.50
11140;DHT22;5624;49.388;11.350;2023-07-08T07:10:54;32.30;26.10
11140;DHT22;5624;49.388;11.350;2023-07-08T07:13:20;32.20;27.10
11140;DHT22;5624;49.388;11.350;2023-07-08T07:15:48;31.70;27.50
11140;DHT22;5624;49.388;11.350;2023-07-08T07:18:14;31.90;27.00
11140;DHT22;5624;49.388;11.350;2023-07-08T07:20:48;31.20;27.90
11140;DHT22;5624;49.388;11.350;2023-07-08T07:23:15;31.40;27.40
11140;DHT22;5624;49.388;11.350;2023-07-08T07:25:41;31.10;28.20
11140;DHT22;5624;49.388;11.350;2023-07-08T07:28:06;31.60;27.20
11140;DHT22;5624;49.388;11.350;2023-07-08T07:30:32;31.80;26.30
11140;DHT22;5624;49.388;11.350;2023-07-08T07:33:01;31.40;26.90
11140;DHT22;5624;49.388;11.350;2023-07-08T07:35:26;31.90;26.70
11140;DHT22;5624;49.388;11.350;2023-07-08T07:37:52;32.00;27.30
11140;DHT22;5624;49.388;11.350;2023-07-08T07:40:18;31.60;27.30
11140;DHT22;5624;49.388;11.350;2023-07-08T07:42:45;31.80;26.40
11140;DHT22;5624;49.388;11.350;2023-07-08T07:45:12;31.90;26.40
11140;DHT22;5624;49.388;11.350;2023-07-08T07:47:37;31.60;26.00
11140;DHT22;5624;49.388;11.350;2023-07-08T07:50:08;31.30;27.80
11140;DHT22;5624;49.388;11.350;2023-07-08T07:52:34;31.90;26.30
11140;DHT22;5624;49.388;11.350;2023-07-08T07:54:59;32.20;26.70
11140;DHT22;5624;49.388;11.350;2023-07-08T07:57:25;32.60;24.90
11140;DHT22;5624;49.388;11.350;2023-07-08T07:59:51;32.70;24.80
11140;DHT22;5624;49.388;11.350;2023-07-08T08:02:17;32.50;26.10
11140;DHT22;5624;49.388;11.350;2023-07-08T08:04:43;32.60;25.80
11140;DHT22;5624;49.388;11.350;2023-07-08T08:07:09;32.80;25.70
11140;DHT22;5624;49.388;11.350;2023-07-08T08:09:36;33.20;24.70
11140;DHT22;5624;49.388;11.350;2023-07-08T08:12:03;33.10;24.10
11140;DHT22;5624;49.388;11.350;2023-07-08T08:14:29;32.40;24.20
11140;DHT22;5624;49.388;11.350;2023-07-08T08:16:55;32.70;23.80
11140;DHT22;5624;49.388;11.350;2023-07-08T08:19:20;32.60;24.60
11140;DHT22;5624;49.388;11.350;2023-07-08T08:21:46;33.10;23.90
11140;DHT22;5624;49.388;11.350;2023-07-08T08:24:11;33.10;24.50
11140;DHT22;5624;49.388;11.350;2023-07-08T08:26:37;33.30;23.90
11140;DHT22;5624;49.388;11.350;2023-07-08T08:29:03;33.30;24.20
11140;DHT22;5624;49.388;11.350;2023-07-08T08:31:28;33.80;23.40
11140;DHT22;5624;49.388;11.350;2023-07-08T08:33:56;33.40;23.30
11140;DHT22;5624;49.388;11.350;2023-07-08T08:36:22;33.60;23.00
11140;DHT22;5624;49.388;11.350;2023-07-08T08:38:48;33.50;23.50
11140;DHT22;5624;49.388;11.350;2023-07-08T08:41:28;33.70;22.30
11140;DHT22;5624;49.388;11.350;2023-07-08T08:43:55;33.70;24.10
11140;DHT22;5624;49.388;11.350;2023-07-08T08:49:13;33.20;22.60
11140;DHT22;5624;49.388;11.350;2023-07-08T08:51:42;33.30;22.60
11140;DHT22;5624;49.388;11.350;2023-07-08T08:54:08;33.40;23.10
11140;DHT22;5624;49.388;11.350;2023-07-08T08:56:48;33.40;22.30
11140;DHT22;5624;49.388;11.350;2023-07-08T08:59:27;33.70;23.10
11140;DHT22;5624;49.388;11.350;2023-07-08T09:01:55;33.70;22.20
11140;DHT22;5624;49.388;11.350;2023-07-08T09:04:28;33.90;23.60
11140;DHT22;5624;49.388;11.350;2023-07-08T09:07:04;34.00;22.90
11140;DHT22;5624;49.388;11.350;2023-07-08T09:09:46;33.50;23.10
11140;DHT22;5624;49.388;11.350;2023-07-08T09:12:25;33.40;21.70
11140;DHT22;5624;49.388;11.350;2023-07-08T09:14:51;33.70;24.10
11140;DHT22;5624;49.388;11.350;2023-07-08T09:22:43;32.90;23.20
11140;DHT22;5624;49.388;11.350;2023-07-08T09:27:46;33.50;21.80
11140;DHT22;5624;49.388;11.350;2023-07-08T09:30:18;33.40;22.60
11140;DHT22;5624;49.388;11.350;2023-07-08T09:32:46;33.00;21.90
11140;DHT22;5624;49.388;11.350;2023-07-08T09:35:24;33.20;22.30
11140;DHT22;5624;49.388;11.350;2023-07-08T09:37:51;32.80;22.50
11140;DHT22;5624;49.388;11.350;2023-07-08T09:40:30;33.10;21.80
11140;DHT22;5624;49.388;11.350;2023-07-08T09:45:44;33.30;22.30
11140;DHT22;5624;49.388;11.350;2023-07-08T09:48:23;33.80;22.10
11140;DHT22;5624;49.388;11.350;2023-07-08T09:50:52;33.50;20.30
11140;DHT22;5624;49.388;11.350;2023-07-08T09:53:18;33.60;22.70
11140;DHT22;5624;49.388;11.350;2023-07-08T09:55:45;34.10;20.80
11140;DHT22;5624;49.388;11.350;2023-07-08T09:58:33;33.70;20.20
11140;DHT22;5624;49.388;11.350;2023-07-08T10:01:17;33.80;19.60
11140;DHT22;5624;49.388;11.350;2023-07-08T10:03:46;33.50;19.90
11140;DHT22;5624;49.388;11.350;2023-07-08T10:06:26;33.40;20.90
11140;DHT22;5624;49.388;11.350;2023-07-08T10:08:54;33.80;22.40
11140;DHT22;5624;49.388;11.350;2023-07-08T10:11:30;34.40;19.70
11140;DHT22;5624;49.388;11.350;2023-07-08T10:14:01;34.70;19.30
11140;DHT22;5624;49.388;11.350;2023-07-08T10:16:31;34.40;19.60
11140;DHT22;5624;49.388;11.350;2023-07-08T10:18:58;34.40;20.40
11140;DHT22;5624;49.388;11.350;2023-07-08T10:27:20;34.00;21.90
11140;DHT22;5624;49.388;11.350;2023-07-08T10:30:02;33.80;20.20
11140;DHT22;5624;49.388;11.350;2023-07-08T10:35:35;35.10;20.80
11140;DHT22;5624;49.388;11.350;2023-07-08T10:40:43;36.10;20.40
11140;DHT22;5624;49.388;11.350;2023-07-08T10:46:20;35.60;21.10
11140;DHT22;5624;49.388;11.350;2023-07-08T10:51:58;35.30;20.50
11140;DHT22;5624;49.388;11.350;2023-07-08T10:55:17;34.70;20.90
11140;DHT22;5624;49.388;11.350;2023-07-08T10:57:37;34.10;21.20
11140;DHT22;5624;49.388;11.350;2023-07-08T11:03:18;33.00;21.20
11140;DHT22;5624;49.388;11.350;2023-07-08T11:06:17;32.70;21.80
11140;DHT22;5624;49.388;11.350;2023-07-08T11:08:56;32.70;21.70
11140;DHT22;5624;49.388;11.350;2023-07-08T11:11:46;32.50;22.70
11140;DHT22;5624;49.388;11.350;2023-07-08T11:14:37;32.00;22.80
11140;DHT22;5624;49.388;11.350;2023-07-08T11:17:28;31.40;23.10
11140;DHT22;5624;49.388;11.350;2023-07-08T11:20:00;31.30;24.10
11140;DHT22;5624;49.388;11.350;2023-07-08T11:22:29;31.60;24.60
11140;DHT22;5624;49.388;11.350;2023-07-08T11:24:59;31.80;26.20
11140;DHT22;5624;49.388;11.350;2023-07-08T11:27:30;31.90;24.00
11140;DHT22;5624;49.388;11.350;2023-07-08T11:32:31;32.40;24.40
11140;DHT22;5624;49.388;11.350;2023-07-08T11:35:00;32.40;22.40
11140;DHT22;5624;49.388;11.350;2023-07-08T11:37:26;32.80;24.20
11140;DHT22;5624;49.388;11.350;2023-07-08T11:40:15;32.40;23.70
11140;DHT22;5624;49.388;11.350;2023-07-08T11:42:44;32.20;24.70
11140;DHT22;5624;49.388;11.350;2023-07-08T11:47:47;32.60;22.50
11140;DHT22;5624;49.388;11.350;2023-07-08T11:52:51;32.00;21.90
11140;DHT22;5624;49.388;11.350;2023-07-08T11:55:22;32.00;22.80
11140;DHT22;5624;49.388;11.350;2023-07-08T11:57:53;32.00;22.90
11140;DHT22;5624;49.388;11.350;2023-07-08T12:00:24;32.30;23.10
11140;DHT22;5624;49.388;11.350;2023-07-08T12:02:58;32.10;22.30
11140;DHT22;5624;49.388;11.350;2023-07-08T12:07:56;31.80;22.80
11140;DHT22;5624;49.388;11.350;2023-07-08T12:10:38;32.20;24.50
11140;DHT22;5624;49.388;11.350;2023-07-08T12:13:11;32.00;22.60
11140;DHT22;5624;49.388;11.350;2023-07-08T12:15:38;31.90;23.80
11140;DHT22;5624;49.388;11.350;2023-07-08T12:18:13;31.30;23.00
11140;DHT22;5624;49.388;11.350;2023-07-08T12:20:43;31.60;24.20
11140;DHT22;5624;49.388;11.350;2023-07-08T12:23:12;31.40;23.10
11140;DHT22;5624;49.388;11.350;2023-07-08T12:25:38;31.50;25.30
11140;DHT22;5624;49.388;11.350;2023-07-08T12:28:04;31.50;23.10
11140;DHT22;5624;49.388;11.350;2023-07-08T12:30:31;31.40;24.60
11140;DHT22;5624;49.388;11.350;2023-07-08T12:32:59;31.50;24.40
11140;DHT22;5624;49.388;11.350;2023-07-08T12:35:30;31.40;22.40
11140;DHT22;5624;49.388;11.350;2023-07-08T12:38:09;31.40;25.60
11140;DHT22;5624;49.388;11.350;2023-07-08T12:40:37;31.40;25.00
11140;DHT22;5624;49.388;11.350;2023-07-08T12:43:07;31.80;25.60
11140;DHT22;5624;49.388;11.350;2023-07-08T12:45:34;32.00;22.80
11140;DHT22;5624;49.388;11.350;2023-07-08T12:48:00;31.60;22.80
11140;DHT22;5624;49.388;11.350;2023-07-08T12:50:25;31.90;25.20
11140;DHT22;5624;49.388;11.350;2023-07-08T12:52:51;31.60;24.40
11140;DHT22;5624;49.388;11.350;2023-07-08T12:55:16;31.50;23.90
11140;DHT22;5624;49.388;11.350;2023-07-08T12:57:45;31.80;24.40
11140;DHT22;5624;49.388;11.350;2023-07-08T13:00:15;32.00;22.20
11140;DHT22;5624;49.388;11.350;2023-07-08T13:02:45;32.10;25.00
11140;DHT22;5624;49.388;11.350;2023-07-08T13:05:12;32.20;25.30
11140;DHT22;5624;49.388;11.350;2023-07-08T13:07:40;32.00;23.40
11140;DHT22;5624;49.388;11.350;2023-07-08T13:10:12;31.80;25.10
11140;DHT22;5624;49.388;11.350;2023-07-08T13:12:41;31.60;23.80
11140;DHT22;5624;49.388;11.350;2023-07-08T13:15:14;31.40;23.20
11140;DHT22;5624;49.388;11.350;2023-07-08T13:17:42;31.40;23.00
11140;DHT22;5624;49.388;11.350;2023-07-08T13:20:14;30.90;23.50
11140;DHT22;5624;49.388;11.350;2023-07-08T13:22:40;31.10;24.90
11140;DHT22;5624;49.388;11.350;2023-07-08T13:25:14;31.10;24.40
11140;DHT22;5624;49.388;11.350;2023-07-08T13:27:41;31.10;22.60
11140;DHT22;5624;49.388;11.350;2023-07-08T13:30:19;31.30;23.90
11140;DHT22;5624;49.388;11.350;2023-07-08T13:32:51;31.50;23.60
11140;DHT22;5624;49.388;11.350;2023-07-08T13:35:42;31.20;23.50
11140;DHT22;5624;49.388;11.350;2023-07-08T13:38:17;30.90;23.20
11140;DHT22;5624;49.388;11.350;2023-07-08T13:40:53;31.00;24.30
11140;DHT22;5624;49.388;11.350;2023-07-08T13:43:41;31.60;22.70
11140;DHT22;5624;49.388;11.350;2023-07-08T13:46:35;31.40;22.50
11140;DHT22;5624;49.388;11.350;2023-07-08T13:49:09;31.30;23.00
11140;DHT22;5624;49.388;11.350;2023-07-08T13:51:35;30.90;22.10
11140;DHT22;5624;49.388;11.350;2023-07-08T13:54:33;30.70;24.60
11140;DHT22;5624;49.388;11.350;2023-07-08T13:56:53;30.60;24.50
11140;DHT22;5624;49.388;11.350;2023-07-08T13:59:22;30.60;23.10
11140;DHT22;5624;49.388;11.350;2023-07-08T14:01:51;30.60;22.10
11140;DHT22;5624;49.388;11.350;2023-07-08T14:04:19;30.80;22.00
11140;DHT22;5624;49.388;11.350;2023-07-08T14:06:46;30.90;23.10
11140;DHT22;5624;49.388;11.350;2023-07-08T14:09:16;30.80;23.30
11140;DHT22;5624;49.388;11.350;2023-07-08T14:11:43;30.80;23.80
11140;DHT22;5624;49.388;11.350;2023-07-08T14:14:09;30.80;23.00
11140;DHT22;5624;49.388;11.350;2023-07-08T14:16:38;30.50;23.30
11140;DHT22;5624;49.388;11.350;2023-07-08T14:19:07;30.40;23.10
11140;DHT22;5624;49.388;11.350;2023-07-08T14:21:36;30.10;22.50
11140;DHT22;5624;49.388;11.350;2023-07-08T14:24:07;30.00;22.40
11140;DHT22;5624;49.388;11.350;2023-07-08T14:26:33;29.90;23.20
11140;DHT22;5624;49.388;11.350;2023-07-08T14:28:59;29.80;24.10
11140;DHT22;5624;49.388;11.350;2023-07-08T14:31:25;29.70;23.70
11140;DHT22;5624;49.388;11.350;2023-07-08T14:34:02;29.70;22.90
11140;DHT22;5624;49.388;11.350;2023-07-08T14:36:28;29.60;23.00
11140;DHT22;5624;49.388;11.350;2023-07-08T14:38:53;29.80;23.40
11140;DHT22;5624;49.388;11.350;2023-07-08T14:41:19;30.00;23.00
11140;DHT22;5624;49.388;11.350;2023-07-08T14:43:45;30.00;22.70
11140;DHT22;5624;49.388;11.350;2023-07-08T14:46:10;30.00;23.20
11140;DHT22;5624;49.388;11.350;2023-07-08T14:48:36;30.10;22.80
11140;DHT22;5624;49.388;11.350;2023-07-08T14:51:02;30.10;24.40
11140;DHT22;5624;49.388;11.350;2023-07-08T14:53:27;30.00;25.30
11140;DHT22;5624;49.388;11.350;2023-07-08T14:55:55;30.00;25.30
11140;DHT22;5624;49.388;11.350;2023-07-08T15:00:46;30.10;22.60
11140;DHT22;5624;49.388;11.350;2023-07-08T15:03:12;30.10;23.20
11140;DHT22;5624;49.388;11.350;2023-07-08T15:05:38;30.10;22.10
11140;DHT22;5624;49.388;11.350;2023-07-08T15:08:04;29.80;23.20
11140;DHT22;5624;49.388;11.350;2023-07-08T15:10:32;29.90;22.40
11140;DHT22;5624;49.388;11.350;2023-07-08T15:12:59;29.90;22.20
11140;DHT22;5624;49.388;11.350;2023-07-08T15:15:32;29.90;22.00
11140;DHT22;5624;49.388;11.350;2023-07-08T15:17:58;29.80;22.30
11140;DHT22;5624;49.388;11.350;2023-07-08T15:20:25;29.60;22.90
11140;DHT22;5624;49.388;11.350;2023-07-08T15:22:50;29.40;22.60
11140;DHT22;5624;49.388;11.350;2023-07-08T15:25:17;29.40;22.90
11140;DHT22;5624;49.388;11.350;2023-07-08T15:27:45;29.40;23.00
11140;DHT22;5624;49.388;11.350;2023-07-08T15:30:24;29.20;24.10
11140;DHT22;5624;49.388;11.350;2023-07-08T15:32:51;29.10;23.30
11140;DHT22;5624;49.388;11.350;2023-07-08T15:35:26;29.10;23.30
11140;DHT22;5624;49.388;11.350;2023-07-08T15:37:56;29.30;22.40
11140;DHT22;5624;49.388;11.350;2023-07-08T15:40:23;29.30;22.30
11140;DHT22;5624;49.388;11.350;2023-07-08T15:42:51;29.50;23.60
11140;DHT22;5624;49.388;11.350;2023-07-08T15:45:23;29.60;22.10
11140;DHT22;5624;49.388;11.350;2023-07-08T15:47:49;29.60;22.50
11140;DHT22;5624;49.388;11.350;2023-07-08T15:50:17;29.50;24.10
11140;DHT22;5624;49.388;11.350;2023-07-08T15:52:43;29.40;23.70
11140;DHT22;5624;49.388;11.350;2023-07-08T15:55:11;29.40;24.10
11140;DHT22;5624;49.388;11.350;2023-07-08T15:57:57;29.30;23.40
11140;DHT22;5624;49.388;11.350;2023-07-08T16:00:27;29.30;23.20
11140;DHT22;5624;49.388;11.350;2023-07-08T16:02:57;29.20;24.10
11140;DHT22;5624;49.388;11.350;2023-07-08T16:05:24;29.10;24.10
11140;DHT22;5624;49.388;11.350;2023-07-08T16:07:53;29.00;23.50
11140;DHT22;5624;49.388;11.350;2023-07-08T16:10:20;29.00;23.60
11140;DHT22;5624;49.388;11.350;2023-07-08T16:12:47;28.90;24.20
11140;DHT22;5624;49.388;11.350;2023-07-08T16:15:20;28.90;23.80
11140;DHT22;5624;49.388;11.350;2023-07-08T16:17:47;29.10;23.10
11140;DHT22;5624;49.388;11.350;2023-07-08T16:20:20;29.00;24.80
11140;DHT22;5624;49.388;11.350;2023-07-08T16:22:46;28.90;24.70
11140;DHT22;5624;49.388;11.350;2023-07-08T16:25:13;28.80;26.60
11140;DHT22;5624;49.388;11.350;2023-07-08T16:27:39;28.60;25.80
11140;DHT22;5624;49.388;11.350;2023-07-08T16:30:07;28.70;24.90
11140;DHT22;5624;49.388;11.350;2023-07-08T16:32:34;28.90;25.00